sensor_id;sensor_type;location;lat;lon;timestamp;temperature;humidity
37050;DHT22;22958;51.232;6.826;2023-11-19T00:01:55;10.00;99.90
37050;DHT22;22958;51.232;6.826;2023-11-19T00:04:22;10.10;99.90
37050;DHT22;22958;51.232;6.826;2023-11-19T00:06:48;10.10;99.90
37050;DHT22;22958;51.232;6.826;2023-11-19T00:09:13;10.20;99.90
37050;DHT22;22958;51.232;6.826;2023-11-19T00:11:40;10.30;99.90
37050;DHT22;22958;51.232;6.826;2023-11-19T00:14:06;10.30;99.90
37050;DHT22;22958;51.232;6.826;2023-11-19T00:16:34;10.40;99.90
37050;DHT22;22958;51.232;6.826;2023-11-19T00:19:00;10.50;99.90
37050;DHT22;22958;51.232;6.826;2023-11-19T00:21:25;10.60;99.90
37050;DHT22;22958;51.232;6.826;2023-11-19T00:23:54;10.70;99.90
37050;DHT22;22958;51.232;6.826;2023-11-19T00:26:19;10.70;99.90
37050;DHT22;22958;51.232;6.826;2023-11-19T00:28:45;10.70;99.90
37050;DHT22;22958;51.232;6.826;2023-11-19T00:31:13;10.70;99.90
37050;DHT22;22958;51.232;6.826;2023-11-19T00:33:38;10.70;99.90
37050;DHT22;22958;51.232;6.826;2023-11-19T00:36:05;10.80;99.90
37050;DHT22;22958;51.232;6.826;2023-11-19T00:38:30;10.70;99.90
37050;DHT22;22958;51.232;6.826;2023-11-19T00:40:56;10.70;99.90
37050;DHT22;22958;51.232;6.826;2023-11-19T00:43:21;10.70;99.90
37050;DHT22;22958;51.232;6.826;2023-11-19T00:45:47;10.70;99.90
37050;DHT22;22958;51.232;6.826;2023-11-19T00:48:15;10.60;99.90
37050;DHT22;22958;51.232;6.826;2023-11-19T00:50:41;10.60;99.90
37050;DHT22;22958;51.232;6.826;2023-11-19T00:53:09;10.70;99.90
37050;DHT22;22958;51.232;6.826;2023-11-19T00:55:35;10.60;99.90
37050;DHT22;22958;51.232;6.826;2023-11-19T00:58:00;10.60;99.90
37050;DHT22;22958;51.232;6.826;2023-11-19T01:00:26;10.60;99.90
37050;DHT22;22958;51.232;6.826;2023-11-19T01:02:52;10.70;99.90
37050;DHT22;22958;51.232;6.826;2023-11-19T01:05:19;10.60;99.90
37050;DHT22;22958;51.232;6.826;2023-11-19T01:07:47;10.60;99.90
37050;DHT22;22958;51.232;6.826;2023-11-19T01:10:13;10.60;99.90
37050;DHT22;22958;51.232;6.826;2023-11-19T01:12:39;10.60;99.90
37050;DHT22;22958;51.232;6.826;2023-11-19T01:15:05;10.60;99.90
37050;DHT22;22958;51.232;6.826;2023-11-19T01:17:31;10.60;99.90
37050;DHT22;22958;51.232;6.826;2023-11-19T01:19:59;10.80;99.90
37050;DHT22;22958;51.232;6.826;2023-11-19T01:22:25;11.10;99.90
37050;DHT22;22958;51.232;6.826;2023-11-19T01:24:51;11.60;99.90
37050;DHT22;22958;51.232;6.826;2023-11-19T01:27:17;12.00;99.90
37050;DHT22;22958;51.232;6.826;2023-11-19T01:29:43;12.10;99.90
37050;DHT22;22958;51.232;6.826;2023-11-19T01:32:08;12.30;99.90
37050;DHT22;22958;51.232;6.826;2023-11-19T01:34:34;12.30;99.90
37050;DHT22;22958;51.232;6.826;2023-11-19T01:37:00;12.30;99.90
37050;DHT22;22958;51.232;6.826;2023-11-19T01:39:25;12.40;99.90
37050;DHT22;22958;51.232;6.826;2023-11-19T01:41:51;12.50;99.90
37050;DHT22;22958;51.232;6.826;2023-11-19T01:44:17;12.50;99.90
37050;DHT22;22958;51.232;6.826;2023-11-19T01:46:44;12.50;99.90
37050;DHT22;22958;51.232;6.826;2023-11-19T01:49:14;12.50;99.90
37050;DHT22;22958;51.232;6.826;2023-11-19T01:51:41;12.60;99.90
37050;DHT22;22958;51.232;6.826;2023-11-19T01:54:07;12.70;99.90
37050;DHT22;22958;51.232;6.826;2023-11-19T01:56:33;12.70;99.90
37050;DHT22;22958;51.232;6.826;2023-11-19T01:59:00;12.80;99.90
37050;DHT22;22958;51.232;6.826;2023-11-19T02:01:26;12.70;99.90
37050;DHT22;22958;51.232;6.826;2023-11-19T02:03:52;12.70;99.90
37050;DHT22;22958;51.232;6.826;2023-11-19T02:06:18;12.70;99.90
37050;DHT22;22958;51.232;6.826;2023-11-19T02:08:43;12.80;99.90
37050;DHT22;22958;51.232;6.826;2023-11-19T02:11:09;12.80;99.90
37050;DHT22;22958;51.232;6.826;2023-11-19T02:13:37;12.80;99.90
37050;DHT22;22958;51.232;6.826;2023-11-19T02:16:03;12.80;99.90
37050;DHT22;22958;51.232;6.826;2023-11-19T02:18:29;12.90;99.90
37050;DHT22;22958;51.232;6.826;2023-11-19T02:20:58;12.90;99.90
37050;DHT22;22958;51.232;6.826;2023-11-19T02:23:26;12.90;99.90
37050;DHT22;22958;51.232;6.826;2023-11-19T02:28:31;13.00;99.90
37050;DHT22;22958;51.232;6.826;2023-11-19T02:30:58;13.00;99.90
37050;DHT22;22958;51.232;6.826;2023-11-19T02:33:25;12.90;99.90
37050;DHT22;22958;51.232;6.826;2023-11-19T02:35:50;13.00;99.90
37050;DHT22;22958;51.232;6.826;2023-11-19T02:38:16;13.00;99.90
37050;DHT22;22958;51.232;6.826;2023-11-19T02:40:42;13.00;99.90
37050;DHT22;22958;51.232;6.826;2023-11-19T02:43:08;13.00;99.90
37050;DHT22;22958;51.232;6.826;2023-11-19T02:45:34;13.00;99.90
37050;DHT22;22958;51.232;6.826;2023-11-19T02:47:59;13.00;99.90
37050;DHT22;22958;51.232;6.826;2023-11-19T02:50:27;13.00;99.90
37050;DHT22;22958;51.232;6.826;2023-11-19T02:52:54;13.10;99.90
37050;DHT22;22958;51.232;6.826;2023-11-19T02:55:22;13.00;99.90
37050;DHT22;22958;51.232;6.826;2023-11-19T02:57:49;13.10;99.90
37050;DHT22;22958;51.232;6.826;2023-11-19T03:00:22;13.10;99.90
37050;DHT22;22958;51.232;6.826;2023-11-19T03:03:01;13.20;99.90
37050;DHT22;22958;51.232;6.826;2023-11-19T03:05:43;13.20;99.90
37050;DHT22;22958;51.232;6.826;2023-11-19T03:08:09;13.20;99.90
37050;DHT22;22958;51.232;6.826;2023-11-19T03:10:35;13.20;99.90
37050;DHT22;22958;51.232;6.826;2023-11-19T03:13:01;13.20;99.90
37050;DHT22;22958;51.232;6.826;2023-11-19T03:15:28;13.30;99.90
37050;DHT22;22958;51.232;6.826;2023-11-19T03:17:53;13.30;99.90
37050;DHT22;22958;51.232;6.826;2023-11-19T03:20:19;13.30;99.90
37050;DHT22;22958;51.232;6.826;2023-11-19T03:22:46;13.30;99.90
37050;DHT22;22958;51.232;6.826;2023-11-19T03:25:12;13.40;99.90
37050;DHT22;22958;51.232;6.826;2023-11-19T03:27:38;13.40;99.90
37050;DHT22;22958;51.232;6.826;2023-11-19T03:30:05;13.30;99.90
37050;DHT22;22958;51.232;6.826;2023-11-19T03:32:32;13.30;99.90
37050;DHT22;22958;51.232;6.826;2023-11-19T03:34:58;13.40;99.90
37050;DHT22;22958;51.232;6.826;2023-11-19T03:37:25;13.40;99.90
37050;DHT22;22958;51.232;6.826;2023-11-19T03:39:51;13.40;99.90
37050;DHT22;22958;51.232;6.826;2023-11-19T03:42:19;13.40;99.90
37050;DHT22;22958;51.232;6.826;2023-11-19T03:44:44;13.40;99.90
37050;DHT22;22958;51.232;6.826;2023-11-19T03:47:10;13.50;99.90
37050;DHT22;22958;51.232;6.826;2023-11-19T03:49:35;13.50;99.90
37050;DHT22;22958;51.232;6.826;2023-11-19T03:52:01;13.50;99.90
37050;DHT22;22958;51.232;6.826;2023-11-19T03:54:27;13.60;99.90
37050;DHT22;22958;51.232;6.826;2023-11-19T03:56:53;13.60;99.90
37050;DHT22;22958;51.232;6.826;2023-11-19T03:59:18;13.50;99.90
37050;DHT22;22958;51.232;6.826;2023-11-19T04:01:45;13.60;99.90
37050;DHT22;22958;51.232;6.826;2023-11-19T04:04:11;13.50;99.90
37050;DHT22;22958;51.232;6.826;2023-11-19T04:06:37;13.50;99.90
37050;DHT22;22958;51.232;6.826;2023-11-19T04:09:03;13.60;99.90
37050;DHT22;22958;51.232;6.826;2023-11-19T04:11:28;13.50;99.90
37050;DHT22;22958;51.232;6.826;2023-11-19T04:13:54;13.50;99.90
37050;DHT22;22958;51.232;6.826;2023-11-19T04:16:26;13.40;99.90
37050;DHT22;22958;51.232;6.826;2023-11-19T04:18:51;13.40;99.90
37050;DHT22;22958;51.232;6.826;2023-11-19T04:21:17;13.30;99.90
37050;DHT22;22958;51.232;6.826;2023-11-19T04:23:42;13.30;99.90
37050;DHT22;22958;51.232;6.826;2023-11-19T04:26:08;13.30;99.90
37050;DHT22;22958;51.232;6.826;2023-11-19T04:28:33;13.30;99.90
37050;DHT22;22958;51.232;6.826;2023-11-19T04:30:59;13.20;99.90
37050;DHT22;22958;51.232;6.826;2023-11-19T04:33:24;13.20;99.90
37050;DHT22;22958;51.232;6.826;2023-11-19T04:35:50;13.20;99.90
37050;DHT22;22958;51.232;6.826;2023-11-19T04:38:16;13.30;99.90
37050;DHT22;22958;51.232;6.826;2023-11-19T04:40:41;13.30;99.90
37050;DHT22;22958;51.232;6.826;2023-11-19T04:43:07;13.30;99.90
37050;DHT22;22958;51.232;6.826;2023-11-19T04:45:32;13.30;99.90
37050;DHT22;22958;51.232;6.826;2023-11-19T04:47:58;13.30;99.90
37050;DHT22;22958;51.232;6.826;2023-11-19T04:50:24;13.30;99.90
37050;DHT22;22958;51.232;6.826;2023-11-19T04:52:52;13.20;99.90
37050;DHT22;22958;51.232;6.826;2023-11-19T04:55:19;13.10;99.90
37050;DHT22;22958;51.232;6.826;2023-11-19T04:57:44;13.10;99.90
37050;DHT22;22958;51.232;6.826;2023-11-19T05:00:10;13.00;99.90
37050;DHT22;22958;51.232;6.826;2023-11-19T05:02:36;13.00;99.90
37050;DHT22;22958;51.232;6.826;2023-11-19T05:05:03;13.00;99.90
37050;DHT22;22958;51.232;6.826;2023-11-19T05:07:30;13.10;99.90
37050;DHT22;22958;51.232;6.826;2023-11-19T05:09:55;13.00;99.90
37050;DHT22;22958;51.232;6.826;2023-11-19T05:12:21;13.00;99.90
37050;DHT22;22958;51.232;6.826;2023-11-19T05:14:46;13.00;99.90
37050;DHT22;22958;51.232;6.826;2023-11-19T05:17:15;13.00;99.90
37050;DHT22;22958;51.232;6.826;2023-11-19T05:19:43;13.00;99.90
37050;DHT22;22958;51.232;6.826;2023-11-19T05:22:08;13.00;99.90
37050;DHT22;22958;51.232;6.826;2023-11-19T05:24:34;13.10;99.90
37050;DHT22;22958;51.232;6.826;2023-11-19T05:27:01;13.10;99.90
37050;DHT22;22958;51.232;6.826;2023-11-19T05:29:27;13.00;99.90
37050;DHT22;22958;51.232;6.826;2023-11-19T05:31:53;12.90;99.90
37050;DHT22;22958;51.232;6.826;2023-11-19T05:34:20;12.90;99.90
37050;DHT22;22958;51.232;6.826;2023-11-19T05:36:46;13.00;99.90
37050;DHT22;22958;51.232;6.826;2023-11-19T05:39:12;12.90;99.90
37050;DHT22;22958;51.232;6.826;2023-11-19T05:41:37;12.90;99.90
37050;DHT22;22958;51.232;6.826;2023-11-19T05:44:03;13.00;99.90
37050;DHT22;22958;51.232;6.826;2023-11-19T05:46:28;12.90;99.90
37050;DHT22;22958;51.232;6.826;2023-11-19T05:48:54;12.90;99.90
37050;DHT22;22958;51.232;6.826;2023-11-19T05:51:19;13.00;99.90
37050;DHT22;22958;51.232;6.826;2023-11-19T05:53:45;13.00;99.90
37050;DHT22;22958;51.232;6.826;2023-11-19T05:56:11;13.00;99.90
37050;DHT22;22958;51.232;6.826;2023-11-19T05:58:37;13.00;99.90
37050;DHT22;22958;51.232;6.826;2023-11-19T06:01:05;13.00;99.90
37050;DHT22;22958;51.232;6.826;2023-11-19T06:03:32;13.00;99.90
37050;DHT22;22958;51.232;6.826;2023-11-19T06:05:58;13.10;99.90
37050;DHT22;22958;51.232;6.826;2023-11-19T06:08:24;13.00;99.90
37050;DHT22;22958;51.232;6.826;2023-11-19T06:10:52;13.00;99.90
37050;DHT22;22958;51.232;6.826;2023-11-19T06:13:18;12.90;99.90
37050;DHT22;22958;51.232;6.826;2023-11-19T06:15:43;12.90;99.90
37050;DHT22;22958;51.232;6.826;2023-11-19T06:18:09;12.90;99.90
37050;DHT22;22958;51.232;6.826;2023-11-19T06:20:37;12.80;99.90
37050;DHT22;22958;51.232;6.826;2023-11-19T06:23:02;12.80;99.90
37050;DHT22;22958;51.232;6.826;2023-11-19T06:25:28;12.80;99.90
37050;DHT22;22958;51.232;6.826;2023-11-19T06:27:53;12.70;99.90
37050;DHT22;22958;51.232;6.826;2023-11-19T06:30:19;12.70;99.90
37050;DHT22;22958;51.232;6.826;2023-11-19T06:32:45;12.70;99.90
37050;DHT22;22958;51.232;6.826;2023-11-19T06:35:11;12.70;99.90
37050;DHT22;22958;51.232;6.826;2023-11-19T06:37:40;12.70;99.90
37050;DHT22;22958;51.232;6.826;2023-11-19T06:40:06;12.70;99.90
37050;DHT22;22958;51.232;6.826;2023-11-19T06:42:34;12.70;99.90
37050;DHT22;22958;51.232;6.826;2023-11-19T06:45:00;12.70;99.90
37050;DHT22;22958;51.232;6.826;2023-11-19T06:47:26;12.70;99.90
37050;DHT22;22958;51.232;6.826;2023-11-19T06:49:53;12.70;99.90
37050;DHT22;22958;51.232;6.826;2023-11-19T06:52:18;12.70;99.90
37050;DHT22;22958;51.232;6.826;2023-11-19T06:54:44;12.60;99.90
37050;DHT22;22958;51.232;6.826;2023-11-19T06:57:11;12.60;99.90
37050;DHT22;22958;51.232;6.826;2023-11-19T06:59:37;12.60;99.90
37050;DHT22;22958;51.232;6.826;2023-11-19T07:02:02;12.60;99.90
37050;DHT22;22958;51.232;6.826;2023-11-19T07:04:28;12.60;99.90
37050;DHT22;22958;51.232;6.826;2023-11-19T07:06:54;12.50;99.90
37050;DHT22;22958;51.232;6.826;2023-11-19T07:09:19;12.50;99.90
37050;DHT22;22958;51.232;6.826;2023-11-19T07:11:45;12.50;99.90
37050;DHT22;22958;51.232;6.826;2023-11-19T07:14:11;12.40;99.90
37050;DHT22;22958;51.232;6.826;2023-11-19T07:16:37;12.30;99.90
37050;DHT22;22958;51.232;6.826;2023-11-19T07:19:04;12.30;99.90
37050;DHT22;22958;51.232;6.826;2023-11-19T07:21:30;12.40;99.90
37050;DHT22;22958;51.232;6.826;2023-11-19T07:23:56;12.40;99.90
37050;DHT22;22958;51.232;6.826;2023-11-19T07:26:22;12.40;99.90
37050;DHT22;22958;51.232;6.826;2023-11-19T07:28:48;12.40;99.90
37050;DHT22;22958;51.232;6.826;2023-11-19T07:31:14;12.30;99.90
37050;DHT22;22958;51.232;6.826;2023-11-19T07:33:40;12.30;99.90
37050;DHT22;22958;51.232;6.826;2023-11-19T07:36:08;12.30;99.90
37050;DHT22;22958;51.232;6.826;2023-11-19T07:38:34;12.30;99.90
37050;DHT22;22958;51.232;6.826;2023-11-19T07:40:59;12.30;99.90
37050;DHT22;22958;51.232;6.826;2023-11-19T07:43:25;12.30;99.90
37050;DHT22;22958;51.232;6.826;2023-11-19T07:45:51;12.30;99.90
37050;DHT22;22958;51.232;6.826;2023-11-19T07:48:16;12.30;99.90
37050;DHT22;22958;51.232;6.826;2023-11-19T07:50:43;12.40;99.90
37050;DHT22;22958;51.232;6.826;2023-11-19T07:53:08;12.50;99.90
37050;DHT22;22958;51.232;6.826;2023-11-19T07:55:34;12.40;99.90
37050;DHT22;22958;51.232;6.826;2023-11-19T07:58:00;12.50;99.90
37050;DHT22;22958;51.232;6.826;2023-11-19T08:00:26;12.50;99.90
37050;DHT22;22958;51.232;6.826;2023-11-19T08:02:52;12.40;99.90
37050;DHT22;22958;51.232;6.826;2023-11-19T08:05:17;12.50;99.90
37050;DHT22;22958;51.232;6.826;2023-11-19T08:07:43;12.50;99.90
37050;DHT22;22958;51.232;6.826;2023-11-19T08:10:08;12.50;99.90
37050;DHT22;22958;51.232;6.826;2023-11-19T08:12:37;12.50;99.90
37050;DHT22;22958;51.232;6.826;2023-11-19T08:15:03;12.60;99.90
37050;DHT22;22958;51.232;6.826;2023-11-19T08:17:30;12.60;99.90
37050;DHT22;22958;51.232;6.826;2023-11-19T08:19:55;12.60;99.90
37050;DHT22;22958;51.232;6.826;2023-11-19T08:22:21;12.60;99.90
37050;DHT22;22958;51.232;6.826;2023-11-19T08:24:48;12.70;99.90
37050;DHT22;22958;51.232;6.826;2023-11-19T08:27:13;12.70;99.90
37050;DHT22;22958;51.232;6.826;2023-11-19T08:29:39;12.80;99.90
37050;DHT22;22958;51.232;6.826;2023-11-19T08:32:05;12.80;99.90
37050;DHT22;22958;51.232;6.826;2023-11-19T08:34:31;12.80;99.90
37050;DHT22;22958;51.232;6.826;2023-11-19T08:36:57;12.90;99.90
37050;DHT22;22958;51.232;6.826;2023-11-19T08:39:22;12.80;99.90
37050;DHT22;22958;51.232;6.826;2023-11-19T08:41:48;12.90;99.90
37050;DHT22;22958;51.232;6.826;2023-11-19T08:44:14;12.90;99.90
37050;DHT22;22958;51.232;6.826;2023-11-19T08:46:49;12.90;99.90
37050;DHT22;22958;51.232;6.826;2023-11-19T08:49:14;12.80;99.90
37050;DHT22;22958;51.232;6.826;2023-11-19T08:51:40;12.90;99.90
37050;DHT22;22958;51.232;6.826;2023-11-19T08:54:06;13.00;99.90
37050;DHT22;22958;51.232;6.826;2023-11-19T08:56:32;13.10;99.90
37050;DHT22;22958;51.232;6.826;2023-11-19T08:59:00;13.10;99.90
37050;DHT22;22958;51.232;6.826;2023-11-19T09:01:25;13.10;99.90
37050;DHT22;22958;51.232;6.826;2023-11-19T09:03:51;13.10;99.90
37050;DHT22;22958;51.232;6.826;2023-11-19T09:06:17;13.10;99.90
37050;DHT22;22958;51.232;6.826;2023-11-19T09:08:43;13.10;99.90
37050;DHT22;22958;51.232;6.826;2023-11-19T09:11:09;13.00;99.90
37050;DHT22;22958;51.232;6.826;2023-11-19T09:13:35;13.10;99.90
37050;DHT22;22958;51.232;6.826;2023-11-19T09:16:01;13.10;99.90
37050;DHT22;22958;51.232;6.826;2023-11-19T09:18:30;13.20;99.90
37050;DHT22;22958;51.232;6.826;2023-11-19T09:20:57;13.20;99.90
37050;DHT22;22958;51.232;6.826;2023-11-19T09:23:23;13.30;99.90
37050;DHT22;22958;51.232;6.826;2023-11-19T09:25:50;13.30;99.90
37050;DHT22;22958;51.232;6.826;2023-11-19T09:28:16;13.40;99.90
37050;DHT22;22958;51.232;6.826;2023-11-19T09:30:41;13.40;99.90
37050;DHT22;22958;51.232;6.826;2023-11-19T09:33:07;13.50;99.90
37050;DHT22;22958;51.232;6.826;2023-11-19T09:35:32;13.50;99.90
37050;DHT22;22958;51.232;6.826;2023-11-19T09:37:58;13.60;99.90
37050;DHT22;22958;51.232;6.826;2023-11-19T09:40:24;13.60;99.90
37050;DHT22;22958;51.232;6.826;2023-11-19T09:42:50;13.60;99.90
37050;DHT22;22958;51.232;6.826;2023-11-19T09:45:17;13.50;99.90
37050;DHT22;22958;51.232;6.826;2023-11-19T09:47:44;13.50;99.90
37050;DHT22;22958;51.232;6.826;2023-11-19T09:50:16;13.40;99.90
37050;DHT22;22958;51.232;6.826;2023-11-19T09:52:42;13.50;99.90
37050;DHT22;22958;51.232;6.826;2023-11-19T09:55:08;13.50;99.90
37050;DHT22;22958;51.232;6.826;2023-11-19T09:57:34;13.60;99.90
37050;DHT22;22958;51.232;6.826;2023-11-19T10:00:03;13.70;99.90
37050;DHT22;22958;51.232;6.826;2023-11-19T10:02:31;13.90;99.90
37050;DHT22;22958;51.232;6.826;2023-11-19T10:04:59;13.90;99.90
37050;DHT22;22958;51.232;6.826;2023-11-19T10:07:28;13.80;99.90
37050;DHT22;22958;51.232;6.826;2023-11-19T10:09:53;13.70;99.90
37050;DHT22;22958;51.232;6.826;2023-11-19T10:12:19;13.70;99.90
37050;DHT22;22958;51.232;6.826;2023-11-19T10:14:46;13.70;99.90
37050;DHT22;22958;51.232;6.826;2023-11-19T10:17:13;13.70;99.90
37050;DHT22;22958;51.232;6.826;2023-11-19T10:19:40;13.80;99.90
37050;DHT22;22958;51.232;6.826;2023-11-19T10:22:06;13.80;99.90
37050;DHT22;22958;51.232;6.826;2023-11-19T10:24:33;13.80;99.90
37050;DHT22;22958;51.232;6.826;2023-11-19T10:27:02;13.90;99.90
37050;DHT22;22958;51.232;6.826;2023-11-19T10:29:29;14.00;99.90
37050;DHT22;22958;51.232;6.826;2023-11-19T10:31:58;14.30;99.90
37050;DHT22;22958;51.232;6.826;2023-11-19T10:34:25;14.30;99.90
37050;DHT22;22958;51.232;6.826;2023-11-19T10:36:51;14.30;99.90
37050;DHT22;22958;51.232;6.826;2023-11-19T10:39:18;14.20;99.90
37050;DHT22;22958;51.232;6.826;2023-11-19T10:41:43;14.20;99.90
37050;DHT22;22958;51.232;6.826;2023-11-19T10:44:09;14.20;99.90
37050;DHT22;22958;51.232;6.826;2023-11-19T10:46:39;14.20;99.90
37050;DHT22;22958;51.232;6.826;2023-11-19T10:49:05;14.50;99.90
37050;DHT22;22958;51.232;6.826;2023-11-19T10:51:32;14.90;99.90
37050;DHT22;22958;51.232;6.826;2023-11-19T10:54:02;14.90;99.90
37050;DHT22;22958;51.232;6.826;2023-11-19T10:56:31;14.90;99.90
37050;DHT22;22958;51.232;6.826;2023-11-19T10:58:59;14.60;99.90
37050;DHT22;22958;51.232;6.826;2023-11-19T11:01:29;14.30;99.90
37050;DHT22;22958;51.232;6.826;2023-11-19T11:03:59;14.30;99.90
37050;DHT22;22958;51.232;6.826;2023-11-19T11:06:27;14.40;99.90
37050;DHT22;22958;51.232;6.826;2023-11-19T11:08:53;14.70;99.90
37050;DHT22;22958;51.232;6.826;2023-11-19T11:11:19;14.50;99.90
37050;DHT22;22958;51.232;6.826;2023-11-19T11:13:47;14.20;99.90
37050;DHT22;22958;51.232;6.826;2023-11-19T11:16:14;14.60;99.90
37050;DHT22;22958;51.232;6.826;2023-11-19T11:18:40;15.00;99.90
37050;DHT22;22958;51.232;6.826;2023-11-19T11:21:07;15.30;99.90
37050;DHT22;22958;51.232;6.826;2023-11-19T11:23:45;15.60;99.90
37050;DHT22;22958;51.232;6.826;2023-11-19T11:26:39;16.10;99.90
37050;DHT22;22958;51.232;6.826;2023-11-19T11:29:12;16.40;99.90
37050;DHT22;22958;51.232;6.826;2023-11-19T11:34:41;16.90;99.90
37050;DHT22;22958;51.232;6.826;2023-11-19T11:40:04;16.10;99.90
37050;DHT22;22958;51.232;6.826;2023-11-19T11:42:36;16.00;99.90
37050;DHT22;22958;51.232;6.826;2023-11-19T11:45:07;15.60;99.90
37050;DHT22;22958;51.232;6.826;2023-11-19T11:50:13;14.80;99.90
37050;DHT22;22958;51.232;6.826;2023-11-19T11:55:35;14.70;99.90
37050;DHT22;22958;51.232;6.826;2023-11-19T11:58:07;14.60;99.90
37050;DHT22;22958;51.232;6.826;2023-11-19T12:00:38;14.40;99.90
37050;DHT22;22958;51.232;6.826;2023-11-19T12:03:05;14.30;99.90
37050;DHT22;22958;51.232;6.826;2023-11-19T12:05:32;14.70;99.90
37050;DHT22;22958;51.232;6.826;2023-11-19T12:08:05;14.80;99.90
37050;DHT22;22958;51.232;6.826;2023-11-19T12:10:42;14.70;99.90
37050;DHT22;22958;51.232;6.826;2023-11-19T12:13:09;14.60;99.90
37050;DHT22;22958;51.232;6.826;2023-11-19T12:18:31;15.40;99.90
37050;DHT22;22958;51.232;6.826;2023-11-19T12:21:00;16.00;99.90
37050;DHT22;22958;51.232;6.826;2023-11-19T12:23:28;16.40;99.90
37050;DHT22;22958;51.232;6.826;2023-11-19T12:25:54;15.70;99.90
37050;DHT22;22958;51.232;6.826;2023-11-19T12:28:20;15.30;99.90
37050;DHT22;22958;51.232;6.826;2023-11-19T12:30:46;15.50;99.90
37050;DHT22;22958;51.232;6.826;2023-11-19T12:33:13;15.60;99.90
37050;DHT22;22958;51.232;6.826;2023-11-19T12:35:43;15.10;99.90
37050;DHT22;22958;51.232;6.826;2023-11-19T12:38:25;14.70;99.90
37050;DHT22;22958;51.232;6.826;2023-11-19T12:41:20;14.40;99.90
37050;DHT22;22958;51.232;6.826;2023-11-19T12:43:48;14.20;99.90
37050;DHT22;22958;51.232;6.826;2023-11-19T12:46:21;14.00;99.90
37050;DHT22;22958;51.232;6.826;2023-11-19T12:48:47;13.70;99.90
37050;DHT22;22958;51.232;6.826;2023-11-19T12:51:13;13.50;99.90
37050;DHT22;22958;51.232;6.826;2023-11-19T12:53:49;13.20;99.90
37050;DHT22;22958;51.232;6.826;2023-11-19T12:56:23;13.10;99.90
37050;DHT22;22958;51.232;6.826;2023-11-19T12:58:49;13.00;99.90
37050;DHT22;22958;51.232;6.826;2023-11-19T13:01:17;13.30;99.90
37050;DHT22;22958;51.232;6.826;2023-11-19T13:03:44;14.30;99.90
37050;DHT22;22958;51.232;6.826;2023-11-19T13:06:11;15.30;99.90
37050;DHT22;22958;51.232;6.826;2023-11-19T13:08:38;15.90;99.90
37050;DHT22;22958;51.232;6.826;2023-11-19T13:11:04;15.80;99.90
37050;DHT22;22958;51.232;6.826;2023-11-19T13:13:31;15.20;99.90
37050;DHT22;22958;51.232;6.826;2023-11-19T13:16:06;15.30;99.90
37050;DHT22;22958;51.232;6.826;2023-11-19T13:18:32;14.90;99.90
37050;DHT22;22958;51.232;6.826;2023-11-19T13:20:57;14.50;99.90
37050;DHT22;22958;51.232;6.826;2023-11-19T13:23:23;14.60;99.90
37050;DHT22;22958;51.232;6.826;2023-11-19T13:25:49;14.80;99.90
37050;DHT22;22958;51.232;6.826;2023-11-19T13:28:14;14.60;99.90
37050;DHT22;22958;51.232;6.826;2023-11-19T13:30:40;14.30;99.90
37050;DHT22;22958;51.232;6.826;2023-11-19T13:33:05;14.20;99.90
37050;DHT22;22958;51.232;6.826;2023-11-19T13:35:31;14.20;99.90
37050;DHT22;22958;51.232;6.826;2023-11-19T13:37:56;14.70;99.90
37050;DHT22;22958;51.232;6.826;2023-11-19T13:40:22;14.70;99.90
37050;DHT22;22958;51.232;6.826;2023-11-19T13:42:49;14.60;99.90
37050;DHT22;22958;51.232;6.826;2023-11-19T13:45:15;14.70;99.90
37050;DHT22;22958;51.232;6.826;2023-11-19T13:47:44;14.80;99.90
37050;DHT22;22958;51.232;6.826;2023-11-19T13:50:14;14.90;99.90
37050;DHT22;22958;51.232;6.826;2023-11-19T13:52:43;14.80;99.90
37050;DHT22;22958;51.232;6.826;2023-11-19T13:55:09;14.40;99.90
37050;DHT22;22958;51.232;6.826;2023-11-19T13:57:36;14.20;99.90
37050;DHT22;22958;51.232;6.826;2023-11-19T14:00:06;14.00;99.90
37050;DHT22;22958;51.232;6.826;2023-11-19T14:02:36;13.90;99.90
37050;DHT22;22958;51.232;6.826;2023-11-19T14:05:02;13.80;99.90
37050;DHT22;22958;51.232;6.826;2023-11-19T14:07:28;13.70;99.90
37050;DHT22;22958;51.232;6.826;2023-11-19T14:09:53;13.70;99.90
37050;DHT22;22958;51.232;6.826;2023-11-19T14:12:19;13.60;99.90
37050;DHT22;22958;51.232;6.826;2023-11-19T14:14:45;13.60;99.90
37050;DHT22;22958;51.232;6.826;2023-11-19T14:17:11;13.50;99.90
37050;DHT22;22958;51.232;6.826;2023-11-19T14:19:37;13.50;99.90
37050;DHT22;22958;51.232;6.826;2023-11-19T14:22:04;13.50;99.90
37050;DHT22;22958;51.232;6.826;2023-11-19T14:24:30;13.50;99.90
37050;DHT22;22958;51.232;6.826;2023-11-19T14:26:56;13.50;99.90
37050;DHT22;22958;51.232;6.826;2023-11-19T14:29:24;13.40;99.90
37050;DHT22;22958;51.232;6.826;2023-11-19T14:31:51;13.20;99.90
37050;DHT22;22958;51.232;6.826;2023-11-19T14:34:18;13.10;99.90
37050;DHT22;22958;51.232;6.826;2023-11-19T14:36:44;12.90;99.90
37050;DHT22;22958;51.232;6.826;2023-11-19T14:39:10;12.80;99.90
37050;DHT22;22958;51.232;6.826;2023-11-19T14:41:35;12.60;99.90
37050;DHT22;22958;51.232;6.826;2023-11-19T14:44:01;12.30;99.90
37050;DHT22;22958;51.232;6.826;2023-11-19T14:46:28;12.10;99.90
37050;DHT22;22958;51.232;6.826;2023-11-19T14:48:54;11.90;99.90
37050;DHT22;22958;51.232;6.826;2023-11-19T14:51:19;11.70;99.90
37050;DHT22;22958;51.232;6.826;2023-11-19T14:53:46;11.70;99.90
37050;DHT22;22958;51.232;6.826;2023-11-19T14:56:12;11.70;99.90
37050;DHT22;22958;51.232;6.826;2023-11-19T14:58:40;11.60;99.90
37050;DHT22;22958;51.232;6.826;2023-11-19T15:01:06;11.60;99.90
37050;DHT22;22958;51.232;6.826;2023-11-19T15:03:32;11.60;99.90
37050;DHT22;22958;51.232;6.826;2023-11-19T15:05:58;11.60;99.90
37050;DHT22;22958;51.232;6.826;2023-11-19T15:08:24;11.60;99.90
37050;DHT22;22958;51.232;6.826;2023-11-19T15:10:49;11.70;99.90
37050;DHT22;22958;51.232;6.826;2023-11-19T15:13:15;11.70;99.90
37050;DHT22;22958;51.232;6.826;2023-11-19T15:15:41;11.80;99.90
37050;DHT22;22958;51.232;6.826;2023-11-19T15:18:07;11.80;99.90
37050;DHT22;22958;51.232;6.826;2023-11-19T15:20:32;11.70;99.90
37050;DHT22;22958;51.232;6.826;2023-11-19T15:22:58;11.70;99.90
37050;DHT22;22958;51.232;6.826;2023-11-19T15:25:24;11.70;99.90
37050;DHT22;22958;51.232;6.826;2023-11-19T15:27:50;11.60;99.90
37050;DHT22;22958;51.232;6.826;2023-11-19T15:30:15;11.60;99.90
37050;DHT22;22958;51.232;6.826;2023-11-19T15:32:44;11.60;99.90
37050;DHT22;22958;51.232;6.826;2023-11-19T15:35:09;11.70;99.90
37050;DHT22;22958;51.232;6.826;2023-11-19T15:37:36;11.70;99.90
37050;DHT22;22958;51.232;6.826;2023-11-19T15:40:03;11.60;99.90
37050;DHT22;22958;51.232;6.826;2023-11-19T15:42:31;11.70;99.90
37050;DHT22;22958;51.232;6.826;2023-11-19T15:44:57;11.70;99.90